Costa Atlantica — IBLQ — position and weather

sailwx.info

Track history (hours):
 
Tides and Currents Weather Stations Pressure Air Temp Water Temp Dewpoint Dewpoint Depression Visibility Wind Speed Wind Dir Waves Ship Positions

Costa Atlantica (Italy)

Last reported at 2017-Sep-22 01:59 UTC. Time now 2017-Sep-22 17:05 UTC.
Position N 31°25' E 121°30'.

Length 292 m; draft 8 m.

Type: Ship. MMSI: 247645000.

Date/timePositionNaut miles runAvg speedWind from/ knotsBaromVisibWave heightAir tempDewpointWater temp
2017-Sep-22 01:59N 31°25' E 121°30'0 0.0
2017-Sep-22 01:29N 31°25' E 121°30'0 0.0
2017-Sep-22 00:59N 31°25' E 121°30'0 0.0
2017-Sep-22 00:29N 31°25' E 121°30'0 0.0
2017-Sep-21 23:59N 31°25' E 121°30'0 0.0
2017-Sep-21 23:29N 31°25' E 121°30'0 0.0
2017-Sep-21 22:59N 31°25' E 121°30'0 0.0
2017-Sep-21 22:29N 31°25' E 121°30'0 0.0
2017-Sep-21 21:59N 31°25' E 121°30'0 0.0
2017-Sep-21 21:29N 31°25' E 121°30'0 0.0
2017-Sep-21 20:56N 31°25' E 121°30'0 0.0
2017-Sep-21 20:26N 31°25' E 121°30'0 0.0
2017-Sep-21 19:59N 31°25' E 121°30'0 0.0
2017-Sep-21 19:26N 31°25' E 121°30'0 0.0
2017-Sep-21 18:56N 31°25' E 121°30'0 0.0
2017-Sep-21 18:26N 31°25' E 121°30'0 0.0
2017-Sep-21 17:56N 31°25' E 121°30'0 0.4
2017-Sep-21 17:30N 31°25' E 121°30'3 5.6
2017-Sep-21 17:00N 31°24' E 121°33'5 9.9
2017-Sep-21 16:30N 31°22' E 121°38'611.4
2017-Sep-21 16:00N 31°19' E 121°44'611.3
2017-Sep-21 15:30N 31°17' E 121°50'510.4
2017-Sep-21 15:00N 31°15' E 121°56'611.2
2017-Sep-21 14:30N 31°14' E 122°03'611.2
2017-Sep-21 14:00N 31°12' E 122°09'510.2
2017-Sep-21 13:30N 31°09' E 122°14'610.8
2017-Sep-21 13:00N 31°06' E 122°19'611.6
2017-Sep-21 12:29N 31°07' E 122°26'4 8.9
2017-Sep-21 12:00N 31°10' E 122°30'  
2017-Sep-18 16:03N 31°11' E 122°11'315.6
2017-Sep-18 15:53N 31°12' E 122°08'614.4
2017-Sep-18 15:30N 31°14' E 122°02'715.1
2017-Sep-18 15:00N 31°16' E 121°54'714.4
2017-Sep-18 14:30N 31°18' E 121°46'510.5
2017-Sep-18 14:00N 31°21' E 121°40'510.2
2017-Sep-18 13:30N 31°23' E 121°35'4 7.9
2017-Sep-18 12:59N 31°25' E 121°30'0 0.1
2017-Sep-18 12:29N 31°25' E 121°30'0 0.0
2017-Sep-18 11:59N 31°25' E 121°30'0 0.0
2017-Sep-18 11:29N 31°25' E 121°30'0 0.0
2017-Sep-18 10:56N 31°25' E 121°30'0 0.0
2017-Sep-18 10:29N 31°25' E 121°30'0 0.0
2017-Sep-18 09:59N 31°25' E 121°30'0 0.0
2017-Sep-18 09:29N 31°25' E 121°30'0 0.0
2017-Sep-18 08:59N 31°25' E 121°30'0 0.0
2017-Sep-18 08:29N 31°25' E 121°30'0 0.0
2017-Sep-18 07:59N 31°25' E 121°30'0 0.0
2017-Sep-18 07:29N 31°25' E 121°30'0 0.0
2017-Sep-18 06:59N 31°25' E 121°30'0 0.0
2017-Sep-18 06:29N 31°25' E 121°30'0 0.0
2017-Sep-18 05:59N 31°25' E 121°30'0 0.0
2017-Sep-18 05:29N 31°25' E 121°30'0 0.0
2017-Sep-18 04:59N 31°25' E 121°30'0 0.0
2017-Sep-18 04:29N 31°25' E 121°30'0 0.0
2017-Sep-18 03:59N 31°25' E 121°30'0 0.0
2017-Sep-18 03:29N 31°25' E 121°30'0 0.0
2017-Sep-18 02:59N 31°25' E 121°30'0 0.0
2017-Sep-18 02:29N 31°25' E 121°30'0 0.0
2017-Sep-18 01:59N 31°25' E 121°30'0 0.0
2017-Sep-18 01:29N 31°25' E 121°30'0 0.0
2017-Sep-18 00:59N 31°25' E 121°30'0 0.0
2017-Sep-18 00:29N 31°25' E 121°30'0 0.0
2017-Sep-17 23:59N 31°25' E 121°30'1 2.0
2017-Sep-17 23:30N 31°25' E 121°32'4 8.0
2017-Sep-17 23:00N 31°23' E 121°36'510.9
2017-Sep-17 22:30N 31°20' E 121°41'612.2
2017-Sep-17 22:01N 31°18' E 121°48'612.7
2017-Sep-17 21:30N 31°16' E 121°55'611.5
2017-Sep-17 21:00N 31°15' E 122°01'510.9
2017-Sep-17 20:30N 31°13' E 122°07'5 9.5
2017-Sep-17 20:00N 31°10' E 122°12'510.0
2017-Sep-17 19:30N 31°07' E 122°17'610.9
2017-Sep-17 18:57N 31°06' E 122°24'4 8.6
2017-Sep-17 18:30N 31°07' E 122°28'3 6.0
2017-Sep-17 18:00N 31°08' E 122°31'611.3
2017-Sep-17 17:29N 31°14' E 122°31'611.7
2017-Sep-17 17:01N 31°20' E 122°32'611.6
2017-Sep-17 16:27N 31°26' E 122°32'510.6
2017-Sep-17 16:00N 31°31' E 122°34'510.5
2017-Sep-17 15:30N 31°35' E 122°37'510.5
2017-Sep-17 14:59N 31°41' E 122°39'3910.6
2017-Sep-17 11:17N 32°19' E 122°50'411.2
2017-Sep-17 10:57N 32°22' E 122°51'1712.3
2017-Sep-17 09:35N 32°39' E 122°54'113.0
2017-Sep-17 09:29N 32°40' E 122°54'613.2
2017-Sep-17 09:00N 32°46' E 122°55'713.5
2017-Sep-17 08:29N 32°53' E 122°56'27412.4
2017-Sep-16 10:24N 37°27' E 123°19'613.7
2017-Sep-16 09:59N 37°32' E 123°19'713.5
2017-Sep-16 09:30N 37°39' E 123°20'713.1
2017-Sep-16 09:00N 37°45' E 123°20'612.2
2017-Sep-16 08:29N 37°52' E 123°21'911.4
2017-Sep-16 07:44N 38°00' E 123°21'311.5
2017-Sep-16 07:30N 38°03' E 123°20'611.4
2017-Sep-16 07:00N 38°08' E 123°19'511.2
2017-Sep-16 06:30N 38°14' E 123°18'5 9.7
2017-Sep-16 06:00N 38°18' E 123°20'612.2
2017-Sep-16 05:30N 38°17' E 123°28'612.9
2017-Sep-16 05:00N 38°10' E 123°28'612.1
2017-Sep-16 04:29N 38°05' E 123°33'612.2
2017-Sep-16 04:00N 38°00' E 123°37'612.2
2017-Sep-16 03:30N 37°54' E 123°39'40810.0
2017-Sep-14 10:46N 31°14' E 122°05'414.7
2017-Sep-14 10:30N 31°15' E 122°01'714.6
2017-Sep-14 10:00N 31°16' E 121°52'714.5
2017-Sep-14 09:31N 31°19' E 121°45'612.3
2017-Sep-14 09:00N 31°22' E 121°38'611.6
2017-Sep-14 08:30N 31°24' E 121°32'2 3.2
2017-Sep-14 08:00N 31°25' E 121°30'0 0.0
2017-Sep-14 07:30N 31°25' E 121°30'0 0.0
2017-Sep-14 07:00N 31°25' E 121°30'0 0.0
2017-Sep-14 06:30N 31°25' E 121°30'0 0.0
2017-Sep-14 06:00N 31°25' E 121°30'0 0.0
2017-Sep-14 05:30N 31°25' E 121°30'0 0.0
2017-Sep-14 05:00N 31°25' E 121°30'0 0.0
2017-Sep-14 04:30N 31°25' E 121°30'0 0.0
2017-Sep-14 04:00N 31°25' E 121°30'0 0.0
2017-Sep-14 03:30N 31°25' E 121°30'0 0.0
2017-Sep-14 03:00N 31°25' E 121°30'0 0.0
2017-Sep-14 02:30N 31°25' E 121°30'0 0.0
2017-Sep-14 02:00N 31°25' E 121°30'0 0.0
2017-Sep-14 01:30N 31°25' E 121°30'0 0.0
2017-Sep-14 01:00N 31°25' E 121°30'0 0.0
2017-Sep-14 00:30N 31°25' E 121°30'0 0.0
2017-Sep-14 00:00N 31°25' E 121°30'0 0.0
2017-Sep-13 23:30N 31°25' E 121°30'0 0.0
2017-Sep-13 23:00N 31°25' E 121°30'0 0.0
2017-Sep-13 22:30N 31°25' E 121°30'0 0.0
2017-Sep-13 22:00N 31°25' E 121°30'0 0.0
2017-Sep-13 21:30N 31°25' E 121°30'0 0.0
2017-Sep-13 21:00N 31°25' E 121°30'0 0.0
2017-Sep-13 20:30N 31°25' E 121°30'0 0.0
2017-Sep-13 20:00N 31°25' E 121°30'0 0.0
2017-Sep-13 19:30N 31°25' E 121°30'0 0.0
2017-Sep-13 19:00N 31°25' E 121°30'0 0.0
2017-Sep-13 18:31N 31°25' E 121°30'0 0.0
2017-Sep-13 18:01N 31°25' E 121°30'0 0.8
2017-Sep-13 17:31N 31°25' E 121°31'5 9.1
2017-Sep-13 17:00N 31°23' E 121°36'612.5
2017-Sep-13 16:31N 31°20' E 121°42'510.1
2017-Sep-13 16:01N 31°18' E 121°47'713.8
2017-Sep-13 15:30N 31°16' E 121°55'713.6
2017-Sep-13 15:00N 31°14' E 122°03'5 9.4
2017-Sep-13 14:30N 31°13' E 122°08'4 8.6
2017-Sep-13 14:00N 31°10' E 122°12'3 5.8
2017-Sep-13 13:30N 31°08' E 122°15'4 8.6
2017-Sep-13 13:00N 31°06' E 122°19'713.5
2017-Sep-13 12:31N 31°08' E 122°27'4 8.7
2017-Sep-13 12:00N 31°13' E 122°26'0 0.1
2017-Sep-13 11:30N 31°13' E 122°26'0 0.2
2017-Sep-13 10:58N 31°13' E 122°26'0 0.3
2017-Sep-13 10:17N 31°12' E 122°26'2 7.4
2017-Sep-13 10:00N 31°10' E 122°25'4 7.3
2017-Sep-13 09:30N 31°07' E 122°27'612.2
2017-Sep-13 09:00N 31°12' E 122°32'  
Track history (hours):
 
Tides and Currents Weather Stations Pressure Air Temp Water Temp Dewpoint Dewpoint Depression Visibility Wind Speed Wind Dir Waves Ship Positions

Costa Atlantica (Italy)

Last reported at 2017-Sep-22 01:59 UTC. Time now 2017-Sep-22 17:05 UTC.
Position N 31°25' E 121°30'.

Length 292 m; draft 8 m.

Type: Ship. MMSI: 247645000.

Date/timePositionNaut miles runAvg speedWind from/ knotsBaromVisibWave heightAir tempDewpointWater temp
2017-Sep-22 01:59N 31°25' E 121°30'0 0.0
2017-Sep-22 01:29N 31°25' E 121°30'0 0.0
2017-Sep-22 00:59N 31°25' E 121°30'0 0.0
2017-Sep-22 00:29N 31°25' E 121°30'0 0.0
2017-Sep-21 23:59N 31°25' E 121°30'0 0.0
2017-Sep-21 23:29N 31°25' E 121°30'0 0.0
2017-Sep-21 22:59N 31°25' E 121°30'0 0.0
2017-Sep-21 22:29N 31°25' E 121°30'0 0.0
2017-Sep-21 21:59N 31°25' E 121°30'0 0.0
2017-Sep-21 21:29N 31°25' E 121°30'0 0.0
2017-Sep-21 20:56N 31°25' E 121°30'0 0.0
2017-Sep-21 20:26N 31°25' E 121°30'0 0.0
2017-Sep-21 19:59N 31°25' E 121°30'0 0.0
2017-Sep-21 19:26N 31°25' E 121°30'0 0.0
2017-Sep-21 18:56N 31°25' E 121°30'0 0.0
2017-Sep-21 18:26N 31°25' E 121°30'0 0.0
2017-Sep-21 17:56N 31°25' E 121°30'0 0.4
2017-Sep-21 17:30N 31°25' E 121°30'3 5.6
2017-Sep-21 17:00N 31°24' E 121°33'5 9.9
2017-Sep-21 16:30N 31°22' E 121°38'611.4
2017-Sep-21 16:00N 31°19' E 121°44'611.3
2017-Sep-21 15:30N 31°17' E 121°50'510.4
2017-Sep-21 15:00N 31°15' E 121°56'611.2
2017-Sep-21 14:30N 31°14' E 122°03'611.2
2017-Sep-21 14:00N 31°12' E 122°09'510.2
2017-Sep-21 13:30N 31°09' E 122°14'610.8
2017-Sep-21 13:00N 31°06' E 122°19'611.6
2017-Sep-21 12:29N 31°07' E 122°26'4 8.9
2017-Sep-21 12:00N 31°10' E 122°30'  
2017-Sep-18 16:03N 31°11' E 122°11'315.6
2017-Sep-18 15:53N 31°12' E 122°08'614.4
2017-Sep-18 15:30N 31°14' E 122°02'715.1
2017-Sep-18 15:00N 31°16' E 121°54'714.4
2017-Sep-18 14:30N 31°18' E 121°46'510.5
2017-Sep-18 14:00N 31°21' E 121°40'510.2
2017-Sep-18 13:30N 31°23' E 121°35'4 7.9
2017-Sep-18 12:59N 31°25' E 121°30'0 0.1
2017-Sep-18 12:29N 31°25' E 121°30'0 0.0
2017-Sep-18 11:59N 31°25' E 121°30'0 0.0
2017-Sep-18 11:29N 31°25' E 121°30'0 0.0
2017-Sep-18 10:56N 31°25' E 121°30'0 0.0
2017-Sep-18 10:29N 31°25' E 121°30'0 0.0
2017-Sep-18 09:59N 31°25' E 121°30'0 0.0
2017-Sep-18 09:29N 31°25' E 121°30'0 0.0
2017-Sep-18 08:59N 31°25' E 121°30'0 0.0
2017-Sep-18 08:29N 31°25' E 121°30'0 0.0
2017-Sep-18 07:59N 31°25' E 121°30'0 0.0
2017-Sep-18 07:29N 31°25' E 121°30'0 0.0
2017-Sep-18 06:59N 31°25' E 121°30'0 0.0
2017-Sep-18 06:29N 31°25' E 121°30'0 0.0
2017-Sep-18 05:59N 31°25' E 121°30'0 0.0
2017-Sep-18 05:29N 31°25' E 121°30'0 0.0
2017-Sep-18 04:59N 31°25' E 121°30'0 0.0
2017-Sep-18 04:29N 31°25' E 121°30'0 0.0
2017-Sep-18 03:59N 31°25' E 121°30'0 0.0
2017-Sep-18 03:29N 31°25' E 121°30'0 0.0
2017-Sep-18 02:59N 31°25' E 121°30'0 0.0
2017-Sep-18 02:29N 31°25' E 121°30'0 0.0
2017-Sep-18 01:59N 31°25' E 121°30'0 0.0
2017-Sep-18 01:29N 31°25' E 121°30'0 0.0
2017-Sep-18 00:59N 31°25' E 121°30'0 0.0
2017-Sep-18 00:29N 31°25' E 121°30'0 0.0
2017-Sep-17 23:59N 31°25' E 121°30'1 2.0
2017-Sep-17 23:30N 31°25' E 121°32'4 8.0
2017-Sep-17 23:00N 31°23' E 121°36'510.9
2017-Sep-17 22:30N 31°20' E 121°41'612.2
2017-Sep-17 22:01N 31°18' E 121°48'612.7
2017-Sep-17 21:30N 31°16' E 121°55'611.5
2017-Sep-17 21:00N 31°15' E 122°01'510.9
2017-Sep-17 20:30N 31°13' E 122°07'5 9.5
2017-Sep-17 20:00N 31°10' E 122°12'510.0
2017-Sep-17 19:30N 31°07' E 122°17'610.9
2017-Sep-17 18:57N 31°06' E 122°24'4 8.6
2017-Sep-17 18:30N 31°07' E 122°28'3 6.0
2017-Sep-17 18:00N 31°08' E 122°31'611.3
2017-Sep-17 17:29N 31°14' E 122°31'611.7
2017-Sep-17 17:01N 31°20' E 122°32'611.6
2017-Sep-17 16:27N 31°26' E 122°32'510.6
2017-Sep-17 16:00N 31°31' E 122°34'510.5
2017-Sep-17 15:30N 31°35' E 122°37'510.5
2017-Sep-17 14:59N 31°41' E 122°39'3910.6
2017-Sep-17 11:17N 32°19' E 122°50'411.2
2017-Sep-17 10:57N 32°22' E 122°51'1712.3
2017-Sep-17 09:35N 32°39' E 122°54'113.0
2017-Sep-17 09:29N 32°40' E 122°54'613.2
2017-Sep-17 09:00N 32°46' E 122°55'713.5
2017-Sep-17 08:29N 32°53' E 122°56'27412.4
2017-Sep-16 10:24N 37°27' E 123°19'613.7
2017-Sep-16 09:59N 37°32' E 123°19'713.5
2017-Sep-16 09:30N 37°39' E 123°20'713.1
2017-Sep-16 09:00N 37°45' E 123°20'612.2
2017-Sep-16 08:29N 37°52' E 123°21'911.4
2017-Sep-16 07:44N 38°00' E 123°21'311.5
2017-Sep-16 07:30N 38°03' E 123°20'611.4
2017-Sep-16 07:00N 38°08' E 123°19'511.2
2017-Sep-16 06:30N 38°14' E 123°18'5 9.7
2017-Sep-16 06:00N 38°18' E 123°20'612.2
2017-Sep-16 05:30N 38°17' E 123°28'612.9
2017-Sep-16 05:00N 38°10' E 123°28'612.1
2017-Sep-16 04:29N 38°05' E 123°33'612.2
2017-Sep-16 04:00N 38°00' E 123°37'612.2
2017-Sep-16 03:30N 37°54' E 123°39'40810.0
2017-Sep-14 10:46N 31°14' E 122°05'414.7
2017-Sep-14 10:30N 31°15' E 122°01'714.6
2017-Sep-14 10:00N 31°16' E 121°52'714.5
2017-Sep-14 09:31N 31°19' E 121°45'612.3
2017-Sep-14 09:00N 31°22' E 121°38'611.6
2017-Sep-14 08:30N 31°24' E 121°32'2 3.2
2017-Sep-14 08:00N 31°25' E 121°30'0 0.0
2017-Sep-14 07:30N 31°25' E 121°30'0 0.0
2017-Sep-14 07:00N 31°25' E 121°30'0 0.0
2017-Sep-14 06:30N 31°25' E 121°30'0 0.0
2017-Sep-14 06:00N 31°25' E 121°30'0 0.0
2017-Sep-14 05:30N 31°25' E 121°30'0 0.0
2017-Sep-14 05:00N 31°25' E 121°30'0 0.0
2017-Sep-14 04:30N 31°25' E 121°30'0 0.0
2017-Sep-14 04:00N 31°25' E 121°30'0 0.0
2017-Sep-14 03:30N 31°25' E 121°30'0 0.0
2017-Sep-14 03:00N 31°25' E 121°30'0 0.0
2017-Sep-14 02:30N 31°25' E 121°30'0 0.0
2017-Sep-14 02:00N 31°25' E 121°30'0 0.0
2017-Sep-14 01:30N 31°25' E 121°30'0 0.0
2017-Sep-14 01:00N 31°25' E 121°30'0 0.0
2017-Sep-14 00:30N 31°25' E 121°30'0 0.0
2017-Sep-14 00:00N 31°25' E 121°30'0 0.0
2017-Sep-13 23:30N 31°25' E 121°30'0 0.0
2017-Sep-13 23:00N 31°25' E 121°30'0 0.0
2017-Sep-13 22:30N 31°25' E 121°30'0 0.0
2017-Sep-13 22:00N 31°25' E 121°30'0 0.0
2017-Sep-13 21:30N 31°25' E 121°30'0 0.0
2017-Sep-13 21:00N 31°25' E 121°30'0 0.0
2017-Sep-13 20:30N 31°25' E 121°30'0 0.0
2017-Sep-13 20:00N 31°25' E 121°30'0 0.0
2017-Sep-13 19:30N 31°25' E 121°30'0 0.0
2017-Sep-13 19:00N 31°25' E 121°30'0 0.0
2017-Sep-13 18:31N 31°25' E 121°30'0 0.0
2017-Sep-13 18:01N 31°25' E 121°30'0 0.8
2017-Sep-13 17:31N 31°25' E 121°31'5 9.1
2017-Sep-13 17:00N 31°23' E 121°36'612.5
2017-Sep-13 16:31N 31°20' E 121°42'510.1
2017-Sep-13 16:01N 31°18' E 121°47'713.8
2017-Sep-13 15:30N 31°16' E 121°55'713.6
2017-Sep-13 15:00N 31°14' E 122°03'5 9.4
2017-Sep-13 14:30N 31°13' E 122°08'4 8.6
2017-Sep-13 14:00N 31°10' E 122°12'3 5.8
2017-Sep-13 13:30N 31°08' E 122°15'4 8.6
2017-Sep-13 13:00N 31°06' E 122°19'713.5
2017-Sep-13 12:31N 31°08' E 122°27'4 8.7
2017-Sep-13 12:00N 31°13' E 122°26'0 0.1
2017-Sep-13 11:30N 31°13' E 122°26'0 0.2
2017-Sep-13 10:58N 31°13' E 122°26'0 0.3
2017-Sep-13 10:17N 31°12' E 122°26'2 7.4
2017-Sep-13 10:00N 31°10' E 122°25'4 7.3
2017-Sep-13 09:30N 31°07' E 122°27'612.2
2017-Sep-13 09:00N 31°12' E 122°32'  

Dump ship's entire track history